SPHI

Capitan FAP Jose A Quinones Gonzales International Airport

Chiclayo, Peru
SPHI 210500Z 2106/2206 19007KT CAVOK TX28/2119Z TN18/2111Z BECMG 2115/2118 18016KT FM220100 18010KT CAVOK
Issued Valid From Valid To
Apr-21 @ 05:00 UTC
(5 hours ago)
Apr-21 @ 06:00 UTC
(4 hours ago)
Apr-22 @ 06:00 UTC
(in 20 hours)
Apr-21 @ 06:00 to Apr-21 @ 15:00
SPHI 210500Z 2106/2206 19007KT CAVOK TX28/2119Z TN18/2111Z
Wind Visibility Clouds
190° at 7 knots 10,000+ meters
  • No significant clouds
Becoming Apr-21 @ 15:00 to Apr-22 @ 01:00
BECMG 2115/2118 18016KT
Wind Visibility Clouds
180° at 16 knots 10,000+ meters
  • No significant clouds
From Apr-22 @ 01:00 to Apr-22 @ 06:00
FM220100 18010KT CAVOK
Wind Visibility Clouds Conditions
180° at 10 knots 10,000+ meters
  • No significant clouds
SPHI 210500Z 2106/2206 19007KT CAVOK TX28/2119Z TN18/2111Z BECMG 2115/2118 18016KT FM220100 18010KT CAVOK
Issued Apr-21 @ 05:00 UTC
(5 hours ago)
Valid From Apr-21 @ 06:00 UTC
(4 hours ago)
Valid To Apr-22 @ 06:00 UTC
(in 20 hours)
Apr-21 @ 06:00 - Apr-21 @ 15:00
Wind Visibility
190° at 7 knots 10,000+ meters
Clouds
  • No significant clouds
Becoming Apr-21 @ 15:00 - Apr-22 @ 01:00
Wind Visibility
180° at 16 knots 10,000+ meters
Clouds
  • No significant clouds
From Apr-22 @ 01:00 - Apr-22 @ 06:00
Wind Visibility
180° at 10 knots 10,000+ meters
Clouds
  • No significant clouds
Conditions